createdAt,value
2023-03-30T00:00:18.864Z,20.06
2023-03-30T00:02:50.935Z,20.03
2023-03-30T00:05:18.632Z,20.02
2023-03-30T00:07:45.887Z,20.00
2023-03-30T00:10:14.737Z,20.01
2023-03-30T00:12:43.601Z,19.99
2023-03-30T00:15:10.707Z,19.97
2023-03-30T00:17:37.376Z,19.97
2023-03-30T00:20:11.881Z,19.94
2023-03-30T00:22:39.941Z,19.94
2023-03-30T00:25:08.767Z,19.93
2023-03-30T00:27:38.604Z,19.94
2023-03-30T00:30:10.477Z,19.92
2023-03-30T00:32:37.337Z,19.90
2023-03-30T00:35:05.325Z,19.90
2023-03-30T00:37:32.434Z,19.89
2023-03-30T00:39:59.129Z,19.88
2023-03-30T00:42:25.960Z,19.87
2023-03-30T00:45:24.598Z,19.86
2023-03-30T00:47:56.441Z,19.84
2023-03-30T00:50:25.001Z,19.82
2023-03-30T00:52:52.774Z,19.81
2023-03-30T00:55:21.446Z,19.80
2023-03-30T00:57:48.510Z,19.82
2023-03-30T01:00:18.263Z,19.79
2023-03-30T01:02:48.701Z,19.79
2023-03-30T01:05:15.815Z,19.76
2023-03-30T01:07:43.827Z,19.75
2023-03-30T01:10:11.034Z,19.75
2023-03-30T01:12:37.760Z,19.75
2023-03-30T01:15:07.367Z,19.73
2023-03-30T01:17:46.161Z,19.73
2023-03-30T01:20:25.639Z,19.72
2023-03-30T01:23:03.692Z,19.69
2023-03-30T01:26:08.480Z,19.69
2023-03-30T01:29:01.955Z,19.67
2023-03-30T01:31:49.879Z,19.65
2023-03-30T01:34:31.520Z,19.63
2023-03-30T01:37:35.578Z,19.63
2023-03-30T01:40:14.818Z,19.61
2023-03-30T01:42:56.677Z,19.61
2023-03-30T01:45:53.092Z,19.60
2023-03-30T01:48:44.847Z,19.58
2023-03-30T01:51:21.060Z,19.59
2023-03-30T01:54:02.339Z,19.58
2023-03-30T01:56:37.120Z,19.58
2023-03-30T01:59:12.809Z,19.56
2023-03-30T02:01:41.594Z,19.54
2023-03-30T02:04:09.600Z,19.54
2023-03-30T02:06:39.912Z,19.51
2023-03-30T02:09:08.044Z,19.50
2023-03-30T02:11:34.658Z,19.51
2023-03-30T02:14:01.758Z,19.50
2023-03-30T02:16:34.450Z,19.49
2023-03-30T02:19:01.447Z,19.47
2023-03-30T02:21:28.144Z,19.47
2023-03-30T02:23:54.989Z,19.45
2023-03-30T02:26:22.962Z,19.44
2023-03-30T02:28:50.635Z,19.43
2023-03-30T02:31:17.282Z,19.42
2023-03-30T02:34:03.122Z,19.40
2023-03-30T02:36:57.980Z,19.40
2023-03-30T02:39:47.000Z,19.39
2023-03-30T02:42:32.345Z,19.39
2023-03-30T02:45:20.902Z,19.36
2023-03-30T02:47:59.567Z,19.36
2023-03-30T02:50:35.083Z,19.34
2023-03-30T02:53:10.726Z,19.33
2023-03-30T02:55:46.015Z,19.32
2023-03-30T02:58:14.736Z,19.32
2023-03-30T03:01:01.527Z,19.31
2023-03-30T03:03:44.147Z,19.30
2023-03-30T03:06:11.652Z,19.31
2023-03-30T03:08:39.853Z,19.31
2023-03-30T03:11:09.870Z,19.30
2023-03-30T03:13:37.070Z,19.29
2023-03-30T03:16:04.515Z,19.29
2023-03-30T03:18:31.403Z,19.28
2023-03-30T03:20:58.827Z,19.27
2023-03-30T03:23:25.593Z,19.25
2023-03-30T03:25:52.237Z,19.24
2023-03-30T03:28:18.956Z,19.23
2023-03-30T03:30:45.865Z,19.25
2023-03-30T03:33:12.570Z,19.23
2023-03-30T03:35:39.572Z,19.21
2023-03-30T03:38:07.758Z,19.21
2023-03-30T03:40:34.412Z,19.20
2023-03-30T03:43:01.110Z,19.21
2023-03-30T03:45:27.773Z,19.19
2023-03-30T03:47:54.848Z,19.19
2023-03-30T03:50:21.972Z,19.18
2023-03-30T03:52:48.611Z,19.17
2023-03-30T03:55:15.334Z,19.16
2023-03-30T03:57:42.277Z,19.16
2023-03-30T04:00:18.373Z,19.15
2023-03-30T04:02:45.143Z,19.15
2023-03-30T04:05:11.852Z,19.14
2023-03-30T04:07:38.499Z,19.12
2023-03-30T04:10:06.536Z,19.12
2023-03-30T04:12:33.258Z,19.10
2023-03-30T04:14:59.918Z,19.10
2023-03-30T04:17:26.920Z,19.10
2023-03-30T04:19:56.535Z,19.08
2023-03-30T04:22:26.249Z,19.07
2023-03-30T04:24:53.093Z,19.06
2023-03-30T04:27:19.712Z,19.05
2023-03-30T04:29:46.355Z,19.06
2023-03-30T04:32:13.223Z,19.06
2023-03-30T04:34:42.755Z,19.05
2023-03-30T04:37:10.288Z,19.02
2023-03-30T04:39:37.111Z,19.04
2023-03-30T04:42:04.573Z,19.03
2023-03-30T04:44:31.369Z,19.02
2023-03-30T04:46:57.969Z,19.01
2023-03-30T04:49:24.574Z,19.00
2023-03-30T04:51:53.173Z,19.00
2023-03-30T04:54:19.893Z,19.04
2023-03-30T04:56:46.560Z,19.08
2023-03-30T04:59:13.204Z,19.11
2023-03-30T05:01:39.848Z,19.14
2023-03-30T05:04:06.450Z,19.20
2023-03-30T05:06:33.028Z,19.29
2023-03-30T05:08:59.667Z,19.42
2023-03-30T05:11:26.711Z,19.57
2023-03-30T05:13:54.189Z,19.64
2023-03-30T05:16:22.064Z,19.74
2023-03-30T05:18:51.376Z,19.86
2023-03-30T05:21:18.361Z,20.00
2023-03-30T05:23:45.036Z,20.20
2023-03-30T05:26:11.685Z,20.36
2023-03-30T05:28:38.324Z,20.53
2023-03-30T05:31:05.258Z,20.65
2023-03-30T05:33:32.164Z,20.70
2023-03-30T05:35:58.797Z,20.71
2023-03-30T05:38:25.531Z,20.71
2023-03-30T05:40:53.573Z,20.73
2023-03-30T05:43:20.763Z,20.81
2023-03-30T05:45:47.744Z,20.93
2023-03-30T05:48:14.392Z,21.06
2023-03-30T05:50:42.818Z,21.18
2023-03-30T05:53:09.397Z,21.30
2023-03-30T05:55:35.968Z,21.40
2023-03-30T05:58:04.079Z,21.49
2023-03-30T06:00:33.402Z,21.57
2023-03-30T06:03:00.388Z,21.65
2023-03-30T06:05:27.470Z,21.73
2023-03-30T06:07:54.481Z,21.80
2023-03-30T06:10:21.333Z,21.87
2023-03-30T06:12:47.977Z,21.95
2023-03-30T06:15:14.641Z,22.06
2023-03-30T06:17:41.474Z,22.12
2023-03-30T06:20:11.594Z,22.02
2023-03-30T06:22:41.706Z,21.61
2023-03-30T06:25:09.084Z,21.22
2023-03-30T06:27:36.369Z,21.27
2023-03-30T06:30:03.743Z,21.45
2023-03-30T06:32:30.408Z,21.59
2023-03-30T06:34:57.233Z,21.68
2023-03-30T06:37:23.978Z,21.77
2023-03-30T06:39:50.886Z,21.84
2023-03-30T06:42:17.537Z,21.94
2023-03-30T06:44:44.697Z,21.97
2023-03-30T06:47:11.296Z,22.10
2023-03-30T06:49:37.928Z,22.16
2023-03-30T06:52:06.807Z,22.23
2023-03-30T06:54:34.828Z,22.24
2023-03-30T06:57:01.489Z,22.26
2023-03-30T06:59:28.093Z,22.28
2023-03-30T07:01:54.695Z,22.27
2023-03-30T07:04:22.093Z,22.26
2023-03-30T07:06:48.783Z,22.21
2023-03-30T07:09:15.397Z,22.16
2023-03-30T07:11:42.070Z,22.09
2023-03-30T07:14:10.232Z,21.99
2023-03-30T07:16:38.367Z,21.95
2023-03-30T07:19:05.591Z,21.89
2023-03-30T07:21:32.690Z,21.83
2023-03-30T07:24:01.464Z,21.83
2023-03-30T07:26:28.835Z,21.81
2023-03-30T07:28:56.544Z,21.75
2023-03-30T07:31:24.340Z,21.71
2023-03-30T07:33:51.188Z,21.65
2023-03-30T07:36:18.822Z,21.59
2023-03-30T07:38:46.228Z,21.55
2023-03-30T07:41:14.333Z,21.49
2023-03-30T07:43:41.152Z,21.43
2023-03-30T07:46:09.798Z,21.38
2023-03-30T07:48:36.777Z,21.35
2023-03-30T07:51:11.104Z,21.29
2023-03-30T07:53:37.901Z,21.24
2023-03-30T07:56:04.872Z,21.21
2023-03-30T07:58:32.059Z,21.16
2023-03-30T08:00:58.761Z,21.12
2023-03-30T08:03:25.624Z,21.08
2023-03-30T08:05:56.250Z,21.04
2023-03-30T08:08:23.127Z,21.06
2023-03-30T08:10:49.846Z,21.05
2023-03-30T08:13:16.513Z,21.00
2023-03-30T08:15:43.213Z,20.98
2023-03-30T08:18:09.935Z,20.95
2023-03-30T08:20:37.582Z,20.94
2023-03-30T08:23:05.223Z,20.91
2023-03-30T08:25:32.339Z,20.88
2023-03-30T08:27:58.974Z,20.86
2023-03-30T08:30:25.801Z,20.83
2023-03-30T08:32:53.421Z,20.82
2023-03-30T08:35:21.236Z,20.79
2023-03-30T08:37:48.051Z,20.78
2023-03-30T08:40:17.930Z,20.75
2023-03-30T08:42:48.790Z,20.72
2023-03-30T08:45:15.792Z,20.72
2023-03-30T08:47:49.237Z,20.68
2023-03-30T08:50:23.188Z,20.65
2023-03-30T08:52:49.947Z,20.63
2023-03-30T08:55:40.145Z,20.62
2023-03-30T08:58:17.902Z,20.59
2023-03-30T09:00:48.392Z,20.60
2023-03-30T09:03:42.825Z,20.63
2023-03-30T09:06:40.302Z,20.73
2023-03-30T09:09:09.836Z,20.83
2023-03-30T09:11:36.944Z,20.95
2023-03-30T09:14:05.475Z,21.05
2023-03-30T09:17:00.126Z,21.15
2023-03-30T09:19:31.371Z,21.30
2023-03-30T09:21:57.937Z,21.53
2023-03-30T09:24:26.218Z,21.73
2023-03-30T09:26:59.292Z,21.90
2023-03-30T09:29:32.343Z,22.05
2023-03-30T09:32:17.311Z,22.20
2023-03-30T09:34:49.803Z,22.34
2023-03-30T09:37:18.974Z,22.42
2023-03-30T09:39:46.177Z,22.46
2023-03-30T09:42:22.002Z,22.48
2023-03-30T09:44:50.351Z,22.54
2023-03-30T09:47:27.937Z,22.59
2023-03-30T09:49:58.372Z,22.60
2023-03-30T09:52:26.911Z,22.68
2023-03-30T09:54:53.581Z,22.70
2023-03-30T09:57:24.265Z,22.73
2023-03-30T09:59:52.793Z,22.78
2023-03-30T10:02:20.587Z,22.84
2023-03-30T10:04:53.166Z,22.88
2023-03-30T10:07:31.327Z,22.89
2023-03-30T10:09:58.946Z,22.92
2023-03-30T10:12:25.786Z,22.94
2023-03-30T10:15:01.557Z,22.97
2023-03-30T10:17:28.122Z,23.04
2023-03-30T10:20:14.390Z,23.05
2023-03-30T10:22:53.160Z,23.08
2023-03-30T10:25:23.731Z,23.11
2023-03-30T10:27:53.529Z,23.11
2023-03-30T10:30:23.509Z,23.09
2023-03-30T10:32:50.734Z,23.13
2023-03-30T10:35:19.719Z,23.12
2023-03-30T10:37:49.078Z,23.13
2023-03-30T10:40:33.215Z,23.13
2023-03-30T10:42:59.855Z,23.11
2023-03-30T10:45:38.533Z,23.12
2023-03-30T10:48:11.789Z,23.08
2023-03-30T10:51:17.960Z,23.06
2023-03-30T10:54:16.733Z,23.05
2023-03-30T10:56:46.770Z,23.08
2023-03-30T10:59:13.400Z,23.05
2023-03-30T11:01:51.884Z,23.02
2023-03-30T11:04:25.917Z,22.95
2023-03-30T11:06:53.693Z,22.91
2023-03-30T11:09:23.121Z,22.94
2023-03-30T11:11:57.544Z,22.90
2023-03-30T11:14:55.973Z,22.87
2023-03-30T11:17:34.027Z,22.78
2023-03-30T11:20:07.468Z,22.71
2023-03-30T11:22:39.891Z,22.68
2023-03-30T11:25:15.594Z,22.59
2023-03-30T11:27:50.809Z,22.52
2023-03-30T11:30:35.685Z,22.39
2023-03-30T11:33:12.485Z,22.37
2023-03-30T11:35:45.093Z,22.36
2023-03-30T11:38:16.492Z,22.29
2023-03-30T11:40:47.620Z,22.27
2023-03-30T11:43:22.653Z,22.22
2023-03-30T11:46:08.878Z,22.18
2023-03-30T11:48:38.591Z,22.11
2023-03-30T11:51:14.877Z,22.04
2023-03-30T11:53:47.552Z,21.98
2023-03-30T11:56:28.213Z,21.91
2023-03-30T11:59:05.257Z,21.91
2023-03-30T12:01:40.976Z,21.86
2023-03-30T12:04:18.957Z,21.83
2023-03-30T12:06:54.083Z,21.83
2023-03-30T12:09:38.663Z,21.79
2023-03-30T12:12:12.180Z,21.76
2023-03-30T12:14:47.710Z,21.72
2023-03-30T12:17:26.079Z,21.69
2023-03-30T12:20:21.247Z,21.68
2023-03-30T12:22:56.361Z,21.64
2023-03-30T12:25:51.373Z,21.60
2023-03-30T12:28:19.446Z,21.60
2023-03-30T12:30:46.127Z,21.61
2023-03-30T12:33:18.298Z,21.56
2023-03-30T12:35:58.790Z,21.53
2023-03-30T12:38:27.545Z,21.49
2023-03-30T12:41:16.794Z,21.47
2023-03-30T12:44:04.730Z,21.45
2023-03-30T12:46:59.575Z,21.43
2023-03-30T12:49:36.634Z,21.39
2023-03-30T12:52:09.770Z,21.36
2023-03-30T12:55:01.153Z,21.33
2023-03-30T12:58:01.878Z,21.30
2023-03-30T13:00:37.524Z,21.30
2023-03-30T13:03:10.051Z,21.34
2023-03-30T13:05:40.289Z,21.39
2023-03-30T13:08:09.278Z,21.44
2023-03-30T13:10:37.216Z,21.50
2023-03-30T13:13:04.866Z,21.55
2023-03-30T13:16:00.673Z,21.68
2023-03-30T13:18:30.411Z,21.79
2023-03-30T13:20:57.315Z,21.90
2023-03-30T13:23:27.081Z,22.02
2023-03-30T13:26:34.611Z,22.17
2023-03-30T13:29:11.780Z,22.33
2023-03-30T13:31:56.947Z,22.44
2023-03-30T13:34:29.590Z,22.50
2023-03-30T13:37:11.122Z,22.54
2023-03-30T13:39:53.088Z,22.59
2023-03-30T13:42:30.464Z,22.67
2023-03-30T13:44:58.701Z,22.67
2023-03-30T13:47:37.880Z,22.68
2023-03-30T13:50:10.791Z,22.75
2023-03-30T13:52:43.016Z,22.75
2023-03-30T13:55:24.703Z,22.80
2023-03-30T13:57:53.969Z,22.82
2023-03-30T14:00:28.314Z,22.83
2023-03-30T14:02:55.017Z,22.87
2023-03-30T14:05:24.155Z,22.87
2023-03-30T14:07:55.134Z,22.85
2023-03-30T14:10:22.316Z,22.86
2023-03-30T14:12:53.028Z,22.87
2023-03-30T14:15:23.828Z,22.86
2023-03-30T14:18:00.893Z,22.87
2023-03-30T14:20:56.840Z,22.88
2023-03-30T14:23:36.713Z,22.88
2023-03-30T14:26:15.350Z,22.88
2023-03-30T14:28:45.122Z,22.87
2023-03-30T14:31:17.211Z,22.86
2023-03-30T14:33:44.006Z,22.84
2023-03-30T14:36:12.657Z,22.84
2023-03-30T14:38:40.989Z,22.84
2023-03-30T14:41:14.036Z,22.83
2023-03-30T14:43:41.002Z,22.82
2023-03-30T14:46:11.783Z,22.80
2023-03-30T14:48:41.588Z,22.80
2023-03-30T14:51:23.841Z,22.79
2023-03-30T14:53:51.804Z,22.79
2023-03-30T14:56:18.471Z,22.77
2023-03-30T14:58:46.327Z,22.77
2023-03-30T15:01:15.852Z,22.77
2023-03-30T15:03:42.496Z,22.75
2023-03-30T15:06:09.437Z,22.73
2023-03-30T15:08:39.747Z,22.69
2023-03-30T15:11:15.012Z,22.67
2023-03-30T15:13:47.535Z,22.61
2023-03-30T15:16:28.258Z,22.57
2023-03-30T15:18:59.729Z,22.54
2023-03-30T15:21:26.444Z,22.48
2023-03-30T15:23:53.184Z,22.43
2023-03-30T15:26:19.856Z,22.39
2023-03-30T15:28:51.822Z,22.35
2023-03-30T15:31:18.778Z,22.31
2023-03-30T15:33:53.288Z,22.27
2023-03-30T15:36:35.395Z,22.23
2023-03-30T15:39:02.044Z,22.20
2023-03-30T15:41:56.148Z,22.16
2023-03-30T15:44:22.840Z,22.12
2023-03-30T15:46:50.397Z,22.09
2023-03-30T15:49:22.456Z,22.04
2023-03-30T15:51:53.265Z,22.02
2023-03-30T15:54:24.077Z,21.96
2023-03-30T15:57:00.262Z,21.93
2023-03-30T15:59:49.965Z,21.91
2023-03-30T16:02:24.262Z,21.87
2023-03-30T16:04:51.577Z,21.82
2023-03-30T16:07:19.921Z,21.79
2023-03-30T16:09:46.633Z,21.75
2023-03-30T16:12:15.624Z,21.71
2023-03-30T16:14:42.255Z,21.69
2023-03-30T16:17:12.996Z,21.66
2023-03-30T16:19:41.155Z,21.62
2023-03-30T16:22:08.587Z,21.59
2023-03-30T16:24:35.393Z,21.57
2023-03-30T16:27:02.673Z,21.54
2023-03-30T16:29:29.399Z,21.50
2023-03-30T16:31:58.156Z,21.48
2023-03-30T16:34:25.335Z,21.45
2023-03-30T16:36:52.790Z,21.42
2023-03-30T16:39:24.672Z,21.38
2023-03-30T16:41:51.477Z,21.36
2023-03-30T16:44:21.117Z,21.33
2023-03-30T16:46:47.912Z,21.29
2023-03-30T16:49:18.826Z,21.27
2023-03-30T16:51:45.539Z,21.24
2023-03-30T16:54:23.589Z,21.22
2023-03-30T16:56:57.688Z,21.19
2023-03-30T16:59:25.654Z,21.17
2023-03-30T17:01:52.324Z,21.16
2023-03-30T17:04:19.057Z,21.17
2023-03-30T17:06:45.639Z,21.20
2023-03-30T17:09:18.784Z,21.28
2023-03-30T17:11:46.507Z,21.33
2023-03-30T17:14:13.385Z,21.41
2023-03-30T17:16:42.673Z,21.49
2023-03-30T17:19:12.894Z,21.56
2023-03-30T17:21:40.486Z,21.64
2023-03-30T17:24:07.378Z,21.77
2023-03-30T17:26:33.991Z,21.91
2023-03-30T17:29:00.689Z,22.06
2023-03-30T17:31:27.471Z,22.18
2023-03-30T17:33:56.533Z,22.27
2023-03-30T17:36:23.712Z,22.33
2023-03-30T17:38:50.580Z,22.37
2023-03-30T17:41:19.277Z,22.41
2023-03-30T17:43:47.418Z,22.44
2023-03-30T17:46:15.246Z,22.46
2023-03-30T17:48:41.937Z,22.47
2023-03-30T17:51:08.639Z,22.47
2023-03-30T17:53:35.814Z,22.48
2023-03-30T17:56:02.435Z,22.50
2023-03-30T17:58:32.894Z,22.50
2023-03-30T18:01:04.725Z,22.51
2023-03-30T18:03:31.739Z,22.53
2023-03-30T18:05:59.395Z,22.52
2023-03-30T18:08:26.631Z,22.53
2023-03-30T18:10:54.374Z,22.54
2023-03-30T18:13:21.329Z,22.54
2023-03-30T18:15:49.719Z,22.55
2023-03-30T18:18:24.874Z,22.55
2023-03-30T18:20:59.450Z,22.55
2023-03-30T18:23:26.402Z,22.57
2023-03-30T18:25:53.102Z,22.56
2023-03-30T18:28:24.656Z,22.57
2023-03-30T18:30:53.193Z,22.58
2023-03-30T18:33:20.194Z,22.58
2023-03-30T18:35:47.877Z,22.59
2023-03-30T18:38:16.136Z,22.59
2023-03-30T18:40:48.504Z,22.61
2023-03-30T18:43:15.427Z,22.61
2023-03-30T18:45:43.620Z,22.62
2023-03-30T18:48:14.660Z,22.62
2023-03-30T18:50:45.309Z,22.63
2023-03-30T18:53:16.708Z,22.63
2023-03-30T18:55:44.506Z,22.63
2023-03-30T18:58:20.597Z,22.63
2023-03-30T19:00:48.830Z,22.63
2023-03-30T19:03:16.019Z,22.62
2023-03-30T19:05:43.019Z,22.61
2023-03-30T19:08:13.482Z,22.55
2023-03-30T19:10:41.573Z,22.50
2023-03-30T19:13:10.041Z,22.42
2023-03-30T19:15:36.678Z,22.38
2023-03-30T19:18:04.368Z,22.35
2023-03-30T19:20:32.653Z,22.29
2023-03-30T19:22:59.324Z,22.25
2023-03-30T19:25:27.138Z,22.20
2023-03-30T19:28:03.077Z,22.16
2023-03-30T19:30:32.766Z,22.11
2023-03-30T19:33:01.005Z,22.06
2023-03-30T19:35:28.110Z,22.01
2023-03-30T19:37:54.784Z,21.97
2023-03-30T19:40:21.780Z,21.93
2023-03-30T19:42:48.494Z,21.89
2023-03-30T19:45:16.345Z,21.85
2023-03-30T19:47:43.880Z,21.81
2023-03-30T19:50:16.785Z,21.77
2023-03-30T19:52:43.642Z,21.75
2023-03-30T19:55:10.563Z,21.71
2023-03-30T19:57:37.601Z,21.67
2023-03-30T20:00:12.506Z,21.63
2023-03-30T20:02:43.767Z,21.60
2023-03-30T20:05:10.469Z,21.57
2023-03-30T20:07:37.332Z,21.53
2023-03-30T20:10:05.431Z,21.50
2023-03-30T20:12:35.233Z,21.47
2023-03-30T20:15:06.543Z,21.44
2023-03-30T20:17:34.132Z,21.41
2023-03-30T20:20:07.250Z,21.38
2023-03-30T20:22:38.087Z,21.34
2023-03-30T20:25:07.387Z,21.31
2023-03-30T20:27:35.209Z,21.28
2023-03-30T20:30:02.213Z,21.26
2023-03-30T20:32:28.826Z,21.25
2023-03-30T20:34:55.616Z,21.21
2023-03-30T20:37:22.234Z,21.19
2023-03-30T20:39:51.809Z,21.16
2023-03-30T20:42:25.926Z,21.13
2023-03-30T20:44:53.544Z,21.12
2023-03-30T20:47:25.458Z,21.09
2023-03-30T20:49:55.212Z,21.06
2023-03-30T20:52:24.034Z,21.05
2023-03-30T20:54:51.440Z,21.02
2023-03-30T20:57:19.584Z,21.00
2023-03-30T20:59:49.168Z,20.96
2023-03-30T21:02:16.113Z,20.95
2023-03-30T21:04:43.542Z,20.92
2023-03-30T21:07:10.592Z,20.90
2023-03-30T21:09:37.880Z,20.87
2023-03-30T21:12:04.731Z,20.86
2023-03-30T21:14:31.319Z,20.83
2023-03-30T21:16:58.084Z,20.81
2023-03-30T21:19:24.845Z,20.78
2023-03-30T21:21:51.942Z,20.77
2023-03-30T21:24:18.712Z,20.76
2023-03-30T21:26:45.342Z,20.73
2023-03-30T21:29:11.965Z,20.71
2023-03-30T21:31:38.814Z,20.70
2023-03-30T21:34:07.098Z,20.67
2023-03-30T21:36:34.018Z,20.66
2023-03-30T21:39:01.078Z,20.64
2023-03-30T21:41:28.882Z,20.62
2023-03-30T21:43:55.776Z,20.61
2023-03-30T21:46:23.649Z,20.58
2023-03-30T21:48:53.304Z,20.57
2023-03-30T21:51:22.436Z,20.56
2023-03-30T21:53:50.735Z,20.56
2023-03-30T21:56:17.835Z,20.53
2023-03-30T21:58:44.783Z,20.51
2023-03-30T22:01:12.679Z,20.51
2023-03-30T22:03:43.265Z,20.50
2023-03-30T22:06:10.750Z,20.48
2023-03-30T22:08:37.548Z,20.44
2023-03-30T22:11:15.455Z,20.44
2023-03-30T22:13:42.284Z,20.42
2023-03-30T22:16:33.349Z,20.42
2023-03-30T22:19:00.204Z,20.39
2023-03-30T22:21:34.610Z,20.38
2023-03-30T22:24:02.538Z,20.37
2023-03-30T22:26:29.370Z,20.33
2023-03-30T22:28:56.633Z,20.33
2023-03-30T22:31:23.398Z,20.31
2023-03-30T22:33:50.115Z,20.30
2023-03-30T22:36:21.399Z,20.30
2023-03-30T22:38:48.396Z,20.29
2023-03-30T22:41:17.402Z,20.28
2023-03-30T22:43:44.033Z,20.27
2023-03-30T22:46:11.278Z,20.26
2023-03-30T22:48:41.501Z,20.24
2023-03-30T22:51:08.458Z,20.23
2023-03-30T22:53:35.199Z,20.22
2023-03-30T22:56:01.908Z,20.21
2023-03-30T22:58:28.544Z,20.19
2023-03-30T23:01:02.106Z,20.19
2023-03-30T23:03:28.967Z,20.19
2023-03-30T23:05:56.215Z,20.18
2023-03-30T23:08:23.994Z,20.17
2023-03-30T23:10:51.857Z,20.15
2023-03-30T23:13:18.522Z,20.14
2023-03-30T23:15:48.621Z,20.14
2023-03-30T23:18:15.728Z,20.13
2023-03-30T23:20:46.575Z,20.12
2023-03-30T23:23:13.872Z,20.10
2023-03-30T23:25:44.430Z,20.09
2023-03-30T23:28:11.218Z,20.09
2023-03-30T23:30:37.853Z,20.09
2023-03-30T23:33:04.603Z,20.08
2023-03-30T23:35:31.437Z,20.07
2023-03-30T23:38:00.174Z,20.06
2023-03-30T23:40:27.073Z,20.04
2023-03-30T23:42:53.655Z,20.04
2023-03-30T23:45:20.265Z,20.03
2023-03-30T23:47:46.953Z,20.03
2023-03-30T23:50:13.800Z,20.02
2023-03-30T23:52:40.451Z,20.01
2023-03-30T23:55:07.353Z,20.01
2023-03-30T23:57:33.925Z,19.99
